sensor_id;sensor_type;location;lat;lon;timestamp;P1;durP1;ratioP1;P2;durP2;ratioP2
51824;SDS011;37879;52.986;6.282;2023-07-28T00:02:08;11.18;;;6.57;;
51824;SDS011;37879;52.986;6.282;2023-07-28T00:04:34;15.38;;;7.38;;
51824;SDS011;37879;52.986;6.282;2023-07-28T00:07:00;15.98;;;9.20;;
51824;SDS011;37879;52.986;6.282;2023-07-28T00:09:26;12.70;;;7.53;;
51824;SDS011;37879;52.986;6.282;2023-07-28T00:11:52;12.00;;;7.68;;
51824;SDS011;37879;52.986;6.282;2023-07-28T00:14:17;15.48;;;9.40;;
51824;SDS011;37879;52.986;6.282;2023-07-28T00:16:43;17.77;;;8.93;;
51824;SDS011;37879;52.986;6.282;2023-07-28T00:19:09;13.30;;;8.32;;
51824;SDS011;37879;52.986;6.282;2023-07-28T00:21:34;19.23;;;9.90;;
51824;SDS011;37879;52.986;6.282;2023-07-28T00:24:00;17.77;;;10.25;;
51824;SDS011;37879;52.986;6.282;2023-07-28T00:26:26;16.50;;;11.00;;
51824;SDS011;37879;52.986;6.282;2023-07-28T00:28:51;20.15;;;11.88;;
51824;SDS011;37879;52.986;6.282;2023-07-28T00:31:17;18.70;;;10.10;;
51824;SDS011;37879;52.986;6.282;2023-07-28T00:33:43;16.77;;;9.35;;
51824;SDS011;37879;52.986;6.282;2023-07-28T00:36:08;18.63;;;11.07;;
51824;SDS011;37879;52.986;6.282;2023-07-28T00:38:34;21.63;;;10.75;;
51824;SDS011;37879;52.986;6.282;2023-07-28T00:40:59;18.83;;;11.07;;
51824;SDS011;37879;52.986;6.282;2023-07-28T00:43:25;23.63;;;12.18;;
51824;SDS011;37879;52.986;6.282;2023-07-28T00:45:51;18.02;;;10.90;;
51824;SDS011;37879;52.986;6.282;2023-07-28T00:48:17;20.65;;;14.05;;
51824;SDS011;37879;52.986;6.282;2023-07-28T00:50:46;20.25;;;12.98;;
51824;SDS011;37879;52.986;6.282;2023-07-28T00:53:13;19.20;;;11.65;;
51824;SDS011;37879;52.986;6.282;2023-07-28T00:55:39;22.90;;;13.18;;
51824;SDS011;37879;52.986;6.282;2023-07-28T00:58:05;17.50;;;11.27;;
51824;SDS011;37879;52.986;6.282;2023-07-28T01:00:31;14.60;;;11.13;;
51824;SDS011;37879;52.986;6.282;2023-07-28T01:02:57;18.55;;;11.90;;
51824;SDS011;37879;52.986;6.282;2023-07-28T01:05:28;18.23;;;11.70;;
51824;SDS011;37879;52.986;6.282;2023-07-28T01:08:12;18.15;;;11.85;;
51824;SDS011;37879;52.986;6.282;2023-07-28T01:10:46;20.15;;;12.60;;
51824;SDS011;37879;52.986;6.282;2023-07-28T01:13:12;16.20;;;11.13;;
51824;SDS011;37879;52.986;6.282;2023-07-28T01:15:38;16.63;;;11.07;;
51824;SDS011;37879;52.986;6.282;2023-07-28T01:18:03;18.52;;;11.40;;
51824;SDS011;37879;52.986;6.282;2023-07-28T01:20:29;16.02;;;10.52;;
51824;SDS011;37879;52.986;6.282;2023-07-28T01:23:05;20.15;;;10.95;;
51824;SDS011;37879;52.986;6.282;2023-07-28T01:25:47;23.37;;;11.20;;
51824;SDS011;37879;52.986;6.282;2023-07-28T01:28:32;15.32;;;10.60;;
51824;SDS011;37879;52.986;6.282;2023-07-28T01:31:01;17.77;;;10.20;;
51824;SDS011;37879;52.986;6.282;2023-07-28T01:33:27;18.20;;;10.30;;
51824;SDS011;37879;52.986;6.282;2023-07-28T01:35:53;21.15;;;12.05;;
51824;SDS011;37879;52.986;6.282;2023-07-28T01:38:19;17.42;;;10.52;;
51824;SDS011;37879;52.986;6.282;2023-07-28T01:40:45;21.80;;;11.05;;
51824;SDS011;37879;52.986;6.282;2023-07-28T01:43:10;19.35;;;10.45;;
51824;SDS011;37879;52.986;6.282;2023-07-28T01:45:36;19.90;;;10.15;;
51824;SDS011;37879;52.986;6.282;2023-07-28T01:48:02;20.50;;;10.45;;
51824;SDS011;37879;52.986;6.282;2023-07-28T01:50:28;20.73;;;9.43;;
51824;SDS011;37879;52.986;6.282;2023-07-28T01:52:54;14.88;;;8.80;;
51824;SDS011;37879;52.986;6.282;2023-07-28T01:55:20;20.77;;;9.65;;
51824;SDS011;37879;52.986;6.282;2023-07-28T01:57:58;13.45;;;8.15;;
51824;SDS011;37879;52.986;6.282;2023-07-28T02:00:25;13.25;;;8.48;;
51824;SDS011;37879;52.986;6.282;2023-07-28T02:02:52;20.33;;;8.73;;
51824;SDS011;37879;52.986;6.282;2023-07-28T02:05:18;17.38;;;8.23;;
51824;SDS011;37879;52.986;6.282;2023-07-28T02:07:44;16.42;;;8.82;;
51824;SDS011;37879;52.986;6.282;2023-07-28T02:10:10;11.65;;;7.60;;
51824;SDS011;37879;52.986;6.282;2023-07-28T02:12:36;13.35;;;7.47;;
51824;SDS011;37879;52.986;6.282;2023-07-28T02:15:03;19.38;;;7.55;;
51824;SDS011;37879;52.986;6.282;2023-07-28T02:17:30;16.90;;;7.60;;
51824;SDS011;37879;52.986;6.282;2023-07-28T02:19:55;16.75;;;8.30;;
51824;SDS011;37879;52.986;6.282;2023-07-28T02:22:21;12.43;;;6.05;;
51824;SDS011;37879;52.986;6.282;2023-07-28T02:24:46;15.13;;;8.43;;
51824;SDS011;37879;52.986;6.282;2023-07-28T02:27:12;14.10;;;6.55;;
51824;SDS011;37879;52.986;6.282;2023-07-28T02:29:37;19.30;;;7.30;;
51824;SDS011;37879;52.986;6.282;2023-07-28T02:32:03;14.82;;;7.50;;
51824;SDS011;37879;52.986;6.282;2023-07-28T02:34:29;14.05;;;6.65;;
51824;SDS011;37879;52.986;6.282;2023-07-28T02:36:55;13.77;;;6.85;;
51824;SDS011;37879;52.986;6.282;2023-07-28T02:39:22;10.90;;;5.50;;
51824;SDS011;37879;52.986;6.282;2023-07-28T02:41:48;13.73;;;6.88;;
51824;SDS011;37879;52.986;6.282;2023-07-28T02:44:13;11.55;;;5.57;;
51824;SDS011;37879;52.986;6.282;2023-07-28T02:46:39;14.13;;;5.60;;
51824;SDS011;37879;52.986;6.282;2023-07-28T02:49:05;18.27;;;7.25;;
51824;SDS011;37879;52.986;6.282;2023-07-28T02:51:30;10.85;;;6.05;;
51824;SDS011;37879;52.986;6.282;2023-07-28T02:53:56;14.25;;;5.78;;
51824;SDS011;37879;52.986;6.282;2023-07-28T02:56:22;14.25;;;6.35;;
51824;SDS011;37879;52.986;6.282;2023-07-28T02:58:50;15.88;;;7.25;;
51824;SDS011;37879;52.986;6.282;2023-07-28T03:01:16;14.52;;;6.32;;
51824;SDS011;37879;52.986;6.282;2023-07-28T03:03:42;13.65;;;5.93;;
51824;SDS011;37879;52.986;6.282;2023-07-28T03:06:08;14.45;;;6.15;;
51824;SDS011;37879;52.986;6.282;2023-07-28T03:08:34;15.05;;;6.30;;
51824;SDS011;37879;52.986;6.282;2023-07-28T03:11:00;21.25;;;5.90;;
51824;SDS011;37879;52.986;6.282;2023-07-28T03:13:28;18.10;;;6.70;;
51824;SDS011;37879;52.986;6.282;2023-07-28T03:15:54;14.85;;;6.88;;
51824;SDS011;37879;52.986;6.282;2023-07-28T03:18:20;14.85;;;5.18;;
51824;SDS011;37879;52.986;6.282;2023-07-28T03:20:46;13.05;;;6.85;;
51824;SDS011;37879;52.986;6.282;2023-07-28T03:23:12;14.68;;;5.82;;
51824;SDS011;37879;52.986;6.282;2023-07-28T03:25:38;15.18;;;6.20;;
51824;SDS011;37879;52.986;6.282;2023-07-28T03:28:03;11.38;;;5.80;;
51824;SDS011;37879;52.986;6.282;2023-07-28T03:30:29;14.25;;;6.07;;
51824;SDS011;37879;52.986;6.282;2023-07-28T03:32:54;11.50;;;5.43;;
51824;SDS011;37879;52.986;6.282;2023-07-28T03:35:20;12.88;;;6.25;;
51824;SDS011;37879;52.986;6.282;2023-07-28T03:37:46;14.63;;;5.93;;
51824;SDS011;37879;52.986;6.282;2023-07-28T03:40:12;13.70;;;6.82;;
51824;SDS011;37879;52.986;6.282;2023-07-28T03:42:37;11.98;;;6.05;;
51824;SDS011;37879;52.986;6.282;2023-07-28T03:45:03;12.73;;;5.30;;
51824;SDS011;37879;52.986;6.282;2023-07-28T03:47:29;14.10;;;6.50;;
51824;SDS011;37879;52.986;6.282;2023-07-28T03:49:55;12.10;;;6.13;;
51824;SDS011;37879;52.986;6.282;2023-07-28T03:52:20;14.75;;;7.72;;
51824;SDS011;37879;52.986;6.282;2023-07-28T03:54:46;13.38;;;6.22;;
51824;SDS011;37879;52.986;6.282;2023-07-28T03:57:12;13.73;;;6.30;;
51824;SDS011;37879;52.986;6.282;2023-07-28T03:59:37;14.35;;;6.00;;
51824;SDS011;37879;52.986;6.282;2023-07-28T04:02:03;13.18;;;6.32;;
51824;SDS011;37879;52.986;6.282;2023-07-28T04:04:29;10.60;;;6.00;;
51824;SDS011;37879;52.986;6.282;2023-07-28T04:06:54;10.98;;;6.43;;
51824;SDS011;37879;52.986;6.282;2023-07-28T04:09:23;14.40;;;7.40;;
51824;SDS011;37879;52.986;6.282;2023-07-28T04:11:49;11.88;;;5.82;;
51824;SDS011;37879;52.986;6.282;2023-07-28T04:14:14;15.10;;;7.50;;
51824;SDS011;37879;52.986;6.282;2023-07-28T04:16:40;15.00;;;7.63;;
51824;SDS011;37879;52.986;6.282;2023-07-28T04:19:06;12.65;;;6.40;;
51824;SDS011;37879;52.986;6.282;2023-07-28T04:21:31;13.30;;;6.53;;
51824;SDS011;37879;52.986;6.282;2023-07-28T04:23:57;9.45;;;5.35;;
51824;SDS011;37879;52.986;6.282;2023-07-28T04:26:23;11.43;;;6.20;;
51824;SDS011;37879;52.986;6.282;2023-07-28T04:28:49;14.75;;;6.18;;
51824;SDS011;37879;52.986;6.282;2023-07-28T04:31:15;13.55;;;6.45;;
51824;SDS011;37879;52.986;6.282;2023-07-28T04:33:41;14.93;;;7.15;;
51824;SDS011;37879;52.986;6.282;2023-07-28T04:36:08;10.10;;;5.82;;
51824;SDS011;37879;52.986;6.282;2023-07-28T04:38:33;10.98;;;5.68;;
51824;SDS011;37879;52.986;6.282;2023-07-28T04:40:59;15.40;;;6.80;;
51824;SDS011;37879;52.986;6.282;2023-07-28T04:43:25;14.82;;;5.72;;
51824;SDS011;37879;52.986;6.282;2023-07-28T04:45:51;13.27;;;7.13;;
51824;SDS011;37879;52.986;6.282;2023-07-28T04:48:17;20.17;;;7.85;;
51824;SDS011;37879;52.986;6.282;2023-07-28T04:50:43;15.50;;;7.38;;
51824;SDS011;37879;52.986;6.282;2023-07-28T04:53:09;14.30;;;5.88;;
51824;SDS011;37879;52.986;6.282;2023-07-28T04:55:35;14.90;;;6.15;;
51824;SDS011;37879;52.986;6.282;2023-07-28T04:58:01;15.05;;;6.93;;
51824;SDS011;37879;52.986;6.282;2023-07-28T05:00:26;12.40;;;6.78;;
51824;SDS011;37879;52.986;6.282;2023-07-28T05:02:52;15.43;;;6.63;;
51824;SDS011;37879;52.986;6.282;2023-07-28T05:05:18;11.85;;;6.53;;
51824;SDS011;37879;52.986;6.282;2023-07-28T05:07:43;10.85;;;5.20;;
51824;SDS011;37879;52.986;6.282;2023-07-28T05:10:09;18.80;;;7.60;;
51824;SDS011;37879;52.986;6.282;2023-07-28T05:12:35;9.27;;;6.03;;
51824;SDS011;37879;52.986;6.282;2023-07-28T05:15:01;18.35;;;7.63;;
51824;SDS011;37879;52.986;6.282;2023-07-28T05:17:26;14.43;;;6.55;;
51824;SDS011;37879;52.986;6.282;2023-07-28T05:19:52;16.23;;;7.28;;
51824;SDS011;37879;52.986;6.282;2023-07-28T05:22:18;18.92;;;6.57;;
51824;SDS011;37879;52.986;6.282;2023-07-28T05:24:44;10.07;;;5.53;;
51824;SDS011;37879;52.986;6.282;2023-07-28T05:27:10;10.20;;;4.85;;
51824;SDS011;37879;52.986;6.282;2023-07-28T05:29:36;11.43;;;6.00;;
51824;SDS011;37879;52.986;6.282;2023-07-28T05:32:02;14.55;;;6.18;;
51824;SDS011;37879;52.986;6.282;2023-07-28T05:34:28;14.35;;;6.10;;
51824;SDS011;37879;52.986;6.282;2023-07-28T05:36:54;11.07;;;6.38;;
51824;SDS011;37879;52.986;6.282;2023-07-28T05:39:20;13.32;;;6.22;;
51824;SDS011;37879;52.986;6.282;2023-07-28T05:41:45;21.15;;;7.70;;
51824;SDS011;37879;52.986;6.282;2023-07-28T05:44:11;13.27;;;5.88;;
51824;SDS011;37879;52.986;6.282;2023-07-28T05:46:37;9.73;;;5.03;;
51824;SDS011;37879;52.986;6.282;2023-07-28T05:49:02;11.75;;;5.82;;
51824;SDS011;37879;52.986;6.282;2023-07-28T05:51:28;12.38;;;5.63;;
51824;SDS011;37879;52.986;6.282;2023-07-28T05:53:54;12.38;;;5.38;;
51824;SDS011;37879;52.986;6.282;2023-07-28T05:56:19;10.38;;;4.75;;
51824;SDS011;37879;52.986;6.282;2023-07-28T05:58:48;13.60;;;5.72;;
51824;SDS011;37879;52.986;6.282;2023-07-28T06:01:14;11.70;;;5.40;;
51824;SDS011;37879;52.986;6.282;2023-07-28T06:03:40;11.25;;;5.35;;
51824;SDS011;37879;52.986;6.282;2023-07-28T06:06:06;10.50;;;5.40;;
51824;SDS011;37879;52.986;6.282;2023-07-28T06:08:32;11.07;;;5.18;;
51824;SDS011;37879;52.986;6.282;2023-07-28T06:10:59;8.38;;;4.57;;
51824;SDS011;37879;52.986;6.282;2023-07-28T06:13:24;12.00;;;5.38;;
51824;SDS011;37879;52.986;6.282;2023-07-28T06:15:52;7.80;;;4.43;;
51824;SDS011;37879;52.986;6.282;2023-07-28T06:18:19;7.80;;;4.03;;
51824;SDS011;37879;52.986;6.282;2023-07-28T06:20:47;7.93;;;4.13;;
51824;SDS011;37879;52.986;6.282;2023-07-28T06:23:14;7.85;;;4.63;;
51824;SDS011;37879;52.986;6.282;2023-07-28T06:25:39;5.72;;;4.00;;
51824;SDS011;37879;52.986;6.282;2023-07-28T06:28:11;10.77;;;4.47;;
51824;SDS011;37879;52.986;6.282;2023-07-28T06:30:37;8.57;;;4.20;;
51824;SDS011;37879;52.986;6.282;2023-07-28T06:33:05;5.05;;;3.33;;
51824;SDS011;37879;52.986;6.282;2023-07-28T06:35:31;6.85;;;3.90;;
51824;SDS011;37879;52.986;6.282;2023-07-28T06:37:57;5.95;;;3.92;;
51824;SDS011;37879;52.986;6.282;2023-07-28T06:40:24;6.85;;;3.88;;
51824;SDS011;37879;52.986;6.282;2023-07-28T06:42:50;6.45;;;3.65;;
51824;SDS011;37879;52.986;6.282;2023-07-28T06:45:16;7.57;;;4.32;;
51824;SDS011;37879;52.986;6.282;2023-07-28T06:47:41;10.50;;;3.75;;
51824;SDS011;37879;52.986;6.282;2023-07-28T06:50:08;8.40;;;3.97;;
51824;SDS011;37879;52.986;6.282;2023-07-28T06:52:34;6.70;;;3.97;;
51824;SDS011;37879;52.986;6.282;2023-07-28T06:54:59;10.63;;;4.63;;
51824;SDS011;37879;52.986;6.282;2023-07-28T06:57:25;10.77;;;5.72;;
51824;SDS011;37879;52.986;6.282;2023-07-28T06:59:50;7.40;;;4.60;;
51824;SDS011;37879;52.986;6.282;2023-07-28T07:02:16;11.43;;;5.65;;
51824;SDS011;37879;52.986;6.282;2023-07-28T07:04:42;10.77;;;6.18;;
51824;SDS011;37879;52.986;6.282;2023-07-28T07:07:08;6.72;;;4.40;;
51824;SDS011;37879;52.986;6.282;2023-07-28T07:09:34;6.53;;;4.07;;
51824;SDS011;37879;52.986;6.282;2023-07-28T07:11:59;7.32;;;4.03;;
51824;SDS011;37879;52.986;6.282;2023-07-28T07:14:25;10.77;;;4.38;;
51824;SDS011;37879;52.986;6.282;2023-07-28T07:16:51;7.95;;;4.75;;
51824;SDS011;37879;52.986;6.282;2023-07-28T07:19:17;11.25;;;3.97;;
51824;SDS011;37879;52.986;6.282;2023-07-28T07:21:42;6.95;;;4.15;;
51824;SDS011;37879;52.986;6.282;2023-07-28T07:24:10;8.30;;;4.15;;
51824;SDS011;37879;52.986;6.282;2023-07-28T07:26:38;5.85;;;3.42;;
51824;SDS011;37879;52.986;6.282;2023-07-28T07:29:04;8.80;;;4.32;;
51824;SDS011;37879;52.986;6.282;2023-07-28T07:31:30;7.47;;;3.28;;
51824;SDS011;37879;52.986;6.282;2023-07-28T07:33:56;5.60;;;3.80;;
51824;SDS011;37879;52.986;6.282;2023-07-28T07:36:22;6.30;;;4.63;;
51824;SDS011;37879;52.986;6.282;2023-07-28T07:38:47;8.93;;;4.50;;
51824;SDS011;37879;52.986;6.282;2023-07-28T07:41:16;6.68;;;4.78;;
51824;SDS011;37879;52.986;6.282;2023-07-28T07:43:45;5.95;;;4.18;;
51824;SDS011;37879;52.986;6.282;2023-07-28T07:46:11;4.93;;;3.65;;
51824;SDS011;37879;52.986;6.282;2023-07-28T07:48:37;6.35;;;4.32;;
51824;SDS011;37879;52.986;6.282;2023-07-28T07:51:03;6.07;;;3.90;;
51824;SDS011;37879;52.986;6.282;2023-07-28T07:53:29;7.78;;;4.88;;
51824;SDS011;37879;52.986;6.282;2023-07-28T07:55:54;8.02;;;4.60;;
51824;SDS011;37879;52.986;6.282;2023-07-28T07:58:20;8.45;;;4.80;;
51824;SDS011;37879;52.986;6.282;2023-07-28T08:00:46;6.78;;;4.40;;
51824;SDS011;37879;52.986;6.282;2023-07-28T08:03:11;6.70;;;3.83;;
51824;SDS011;37879;52.986;6.282;2023-07-28T08:05:37;7.20;;;4.10;;
51824;SDS011;37879;52.986;6.282;2023-07-28T08:08:03;11.20;;;4.57;;
51824;SDS011;37879;52.986;6.282;2023-07-28T08:10:30;5.88;;;3.40;;
51824;SDS011;37879;52.986;6.282;2023-07-28T08:12:57;7.40;;;3.80;;
51824;SDS011;37879;52.986;6.282;2023-07-28T08:15:23;6.47;;;3.97;;
51824;SDS011;37879;52.986;6.282;2023-07-28T08:17:48;6.38;;;4.10;;
51824;SDS011;37879;52.986;6.282;2023-07-28T08:20:15;5.65;;;3.58;;
51824;SDS011;37879;52.986;6.282;2023-07-28T08:22:40;4.57;;;2.70;;
51824;SDS011;37879;52.986;6.282;2023-07-28T08:25:09;5.35;;;3.53;;
51824;SDS011;37879;52.986;6.282;2023-07-28T08:27:34;3.92;;;3.20;;
51824;SDS011;37879;52.986;6.282;2023-07-28T08:30:00;4.30;;;3.05;;
51824;SDS011;37879;52.986;6.282;2023-07-28T08:32:26;6.35;;;3.67;;
51824;SDS011;37879;52.986;6.282;2023-07-28T08:34:53;5.38;;;3.53;;
51824;SDS011;37879;52.986;6.282;2023-07-28T08:37:19;5.60;;;2.78;;
51824;SDS011;37879;52.986;6.282;2023-07-28T08:39:44;6.78;;;3.47;;
51824;SDS011;37879;52.986;6.282;2023-07-28T08:42:10;6.90;;;2.97;;
51824;SDS011;37879;52.986;6.282;2023-07-28T08:44:36;6.22;;;3.55;;
51824;SDS011;37879;52.986;6.282;2023-07-28T08:47:02;5.97;;;3.92;;
51824;SDS011;37879;52.986;6.282;2023-07-28T08:49:32;7.22;;;3.78;;
51824;SDS011;37879;52.986;6.282;2023-07-28T08:52:00;5.28;;;3.60;;
51824;SDS011;37879;52.986;6.282;2023-07-28T08:54:27;5.22;;;3.47;;
51824;SDS011;37879;52.986;6.282;2023-07-28T08:56:53;6.05;;;3.90;;
51824;SDS011;37879;52.986;6.282;2023-07-28T08:59:25;5.47;;;3.78;;
51824;SDS011;37879;52.986;6.282;2023-07-28T09:01:52;6.50;;;3.50;;
51824;SDS011;37879;52.986;6.282;2023-07-28T09:04:19;5.40;;;3.08;;
51824;SDS011;37879;52.986;6.282;2023-07-28T09:06:46;9.02;;;4.43;;
51824;SDS011;37879;52.986;6.282;2023-07-28T09:09:13;5.93;;;3.78;;
51824;SDS011;37879;52.986;6.282;2023-07-28T09:11:46;8.07;;;4.28;;
51824;SDS011;37879;52.986;6.282;2023-07-28T09:14:13;5.20;;;3.85;;
51824;SDS011;37879;52.986;6.282;2023-07-28T09:16:49;5.38;;;3.58;;
51824;SDS011;37879;52.986;6.282;2023-07-28T09:19:15;5.40;;;3.30;;
51824;SDS011;37879;52.986;6.282;2023-07-28T09:21:44;6.72;;;3.50;;
51824;SDS011;37879;52.986;6.282;2023-07-28T09:24:13;4.40;;;2.92;;
51824;SDS011;37879;52.986;6.282;2023-07-28T09:26:46;6.00;;;3.65;;
51824;SDS011;37879;52.986;6.282;2023-07-28T09:29:18;8.15;;;3.85;;
51824;SDS011;37879;52.986;6.282;2023-07-28T09:31:46;5.15;;;3.70;;
51824;SDS011;37879;52.986;6.282;2023-07-28T09:34:13;5.18;;;3.60;;
51824;SDS011;37879;52.986;6.282;2023-07-28T09:36:52;5.38;;;3.92;;
51824;SDS011;37879;52.986;6.282;2023-07-28T09:39:24;5.00;;;3.95;;
51824;SDS011;37879;52.986;6.282;2023-07-28T09:41:50;5.05;;;3.97;;
51824;SDS011;37879;52.986;6.282;2023-07-28T09:44:17;7.15;;;4.15;;
51824;SDS011;37879;52.986;6.282;2023-07-28T09:46:55;8.02;;;4.57;;
51824;SDS011;37879;52.986;6.282;2023-07-28T09:49:27;5.05;;;3.20;;
51824;SDS011;37879;52.986;6.282;2023-07-28T09:52:01;5.55;;;3.33;;
51824;SDS011;37879;52.986;6.282;2023-07-28T09:54:30;4.50;;;3.42;;
51824;SDS011;37879;52.986;6.282;2023-07-28T09:56:59;5.57;;;3.90;;
51824;SDS011;37879;52.986;6.282;2023-07-28T09:59:28;7.20;;;4.45;;
51824;SDS011;37879;52.986;6.282;2023-07-28T10:02:00;4.75;;;4.00;;
51824;SDS011;37879;52.986;6.282;2023-07-28T10:04:27;6.43;;;4.10;;
51824;SDS011;37879;52.986;6.282;2023-07-28T10:06:54;4.97;;;3.90;;
51824;SDS011;37879;52.986;6.282;2023-07-28T10:09:26;5.50;;;3.80;;
51824;SDS011;37879;52.986;6.282;2023-07-28T10:11:53;5.93;;;3.38;;
51824;SDS011;37879;52.986;6.282;2023-07-28T10:14:36;5.10;;;3.75;;
51824;SDS011;37879;52.986;6.282;2023-07-28T10:17:05;5.43;;;3.10;;
51824;SDS011;37879;52.986;6.282;2023-07-28T10:19:35;3.92;;;3.15;;
51824;SDS011;37879;52.986;6.282;2023-07-28T10:22:02;4.53;;;2.67;;
51824;SDS011;37879;52.986;6.282;2023-07-28T10:29:57;3.88;;;2.60;;
51824;SDS011;37879;52.986;6.282;2023-07-28T10:32:27;6.40;;;3.05;;
51824;SDS011;37879;52.986;6.282;2023-07-28T10:35:06;5.00;;;3.35;;
51824;SDS011;37879;52.986;6.282;2023-07-28T10:37:32;6.88;;;2.97;;
51824;SDS011;37879;52.986;6.282;2023-07-28T10:42:49;6.50;;;3.13;;
51824;SDS011;37879;52.986;6.282;2023-07-28T10:45:18;6.35;;;3.38;;
51824;SDS011;37879;52.986;6.282;2023-07-28T10:47:44;6.85;;;3.60;;
51824;SDS011;37879;52.986;6.282;2023-07-28T10:50:11;5.00;;;2.95;;
51824;SDS011;37879;52.986;6.282;2023-07-28T10:52:44;4.68;;;3.70;;
51824;SDS011;37879;52.986;6.282;2023-07-28T10:55:17;6.03;;;2.80;;
51824;SDS011;37879;52.986;6.282;2023-07-28T10:57:46;3.60;;;2.53;;
51824;SDS011;37879;52.986;6.282;2023-07-28T11:00:13;6.22;;;2.92;;
51824;SDS011;37879;52.986;6.282;2023-07-28T11:03:13;3.70;;;2.70;;
51824;SDS011;37879;52.986;6.282;2023-07-28T11:05:33;4.95;;;3.70;;
51824;SDS011;37879;52.986;6.282;2023-07-28T11:07:59;6.07;;;3.42;;
51824;SDS011;37879;52.986;6.282;2023-07-28T11:10:30;7.18;;;3.67;;
51824;SDS011;37879;52.986;6.282;2023-07-28T11:12:57;5.28;;;2.55;;
51824;SDS011;37879;52.986;6.282;2023-07-28T11:15:25;4.03;;;3.20;;
51824;SDS011;37879;52.986;6.282;2023-07-28T11:17:51;5.22;;;3.80;;
51824;SDS011;37879;52.986;6.282;2023-07-28T11:20:24;4.40;;;3.90;;
51824;SDS011;37879;52.986;6.282;2023-07-28T11:22:53;6.38;;;4.50;;
51824;SDS011;37879;52.986;6.282;2023-07-28T11:25:28;7.47;;;4.60;;
51824;SDS011;37879;52.986;6.282;2023-07-28T11:27:55;6.65;;;4.85;;
51824;SDS011;37879;52.986;6.282;2023-07-28T11:30:21;9.55;;;4.57;;
51824;SDS011;37879;52.986;6.282;2023-07-28T11:32:49;7.00;;;5.07;;
51824;SDS011;37879;52.986;6.282;2023-07-28T11:35:17;6.20;;;5.15;;
51824;SDS011;37879;52.986;6.282;2023-07-28T11:37:45;5.68;;;4.90;;
51824;SDS011;37879;52.986;6.282;2023-07-28T11:40:13;7.82;;;4.72;;
51824;SDS011;37879;52.986;6.282;2023-07-28T11:42:53;8.63;;;5.82;;
51824;SDS011;37879;52.986;6.282;2023-07-28T11:45:20;8.63;;;5.57;;
51824;SDS011;37879;52.986;6.282;2023-07-28T11:48:02;7.40;;;5.18;;
51824;SDS011;37879;52.986;6.282;2023-07-28T11:50:31;5.28;;;4.30;;
51824;SDS011;37879;52.986;6.282;2023-07-28T11:53:03;8.80;;;5.15;;
51824;SDS011;37879;52.986;6.282;2023-07-28T11:55:29;7.15;;;5.35;;
51824;SDS011;37879;52.986;6.282;2023-07-28T11:57:55;7.65;;;4.10;;
51824;SDS011;37879;52.986;6.282;2023-07-28T12:00:24;6.13;;;3.92;;
51824;SDS011;37879;52.986;6.282;2023-07-28T12:03:01;5.38;;;3.60;;
51824;SDS011;37879;52.986;6.282;2023-07-28T12:05:30;5.28;;;3.70;;
51824;SDS011;37879;52.986;6.282;2023-07-28T12:07:58;5.53;;;3.95;;
51824;SDS011;37879;52.986;6.282;2023-07-28T12:10:24;6.15;;;4.10;;
51824;SDS011;37879;52.986;6.282;2023-07-28T12:12:49;6.28;;;4.55;;
51824;SDS011;37879;52.986;6.282;2023-07-28T12:18:07;6.10;;;4.97;;
51824;SDS011;37879;52.986;6.282;2023-07-28T12:20:36;6.80;;;4.78;;
51824;SDS011;37879;52.986;6.282;2023-07-28T12:23:03;9.75;;;5.40;;
51824;SDS011;37879;52.986;6.282;2023-07-28T12:25:29;6.78;;;4.28;;
51824;SDS011;37879;52.986;6.282;2023-07-28T12:27:55;8.77;;;4.80;;
51824;SDS011;37879;52.986;6.282;2023-07-28T12:30:21;6.90;;;4.20;;
51824;SDS011;37879;52.986;6.282;2023-07-28T12:32:48;4.82;;;4.07;;
51824;SDS011;37879;52.986;6.282;2023-07-28T12:35:14;5.53;;;4.38;;
51824;SDS011;37879;52.986;6.282;2023-07-28T12:37:40;5.13;;;3.70;;
51824;SDS011;37879;52.986;6.282;2023-07-28T12:40:06;5.70;;;3.10;;
51824;SDS011;37879;52.986;6.282;2023-07-28T12:42:33;5.30;;;3.40;;
51824;SDS011;37879;52.986;6.282;2023-07-28T12:44:59;4.82;;;3.90;;
51824;SDS011;37879;52.986;6.282;2023-07-28T12:47:25;6.70;;;3.75;;
51824;SDS011;37879;52.986;6.282;2023-07-28T12:49:51;6.30;;;4.25;;
51824;SDS011;37879;52.986;6.282;2023-07-28T12:52:16;6.35;;;4.18;;
51824;SDS011;37879;52.986;6.282;2023-07-28T12:54:42;6.68;;;4.55;;
51824;SDS011;37879;52.986;6.282;2023-07-28T12:57:08;5.90;;;4.25;;
51824;SDS011;37879;52.986;6.282;2023-07-28T12:59:35;5.90;;;3.90;;
51824;SDS011;37879;52.986;6.282;2023-07-28T13:02:01;5.60;;;3.90;;
51824;SDS011;37879;52.986;6.282;2023-07-28T13:04:27;4.85;;;3.15;;
51824;SDS011;37879;52.986;6.282;2023-07-28T13:06:53;4.57;;;3.70;;
51824;SDS011;37879;52.986;6.282;2023-07-28T13:09:19;4.85;;;3.08;;
51824;SDS011;37879;52.986;6.282;2023-07-28T13:11:45;5.43;;;3.83;;
51824;SDS011;37879;52.986;6.282;2023-07-28T13:14:11;5.80;;;3.05;;
51824;SDS011;37879;52.986;6.282;2023-07-28T13:16:36;3.92;;;2.67;;
51824;SDS011;37879;52.986;6.282;2023-07-28T13:19:03;5.45;;;3.13;;
51824;SDS011;37879;52.986;6.282;2023-07-28T13:21:29;5.65;;;2.92;;
51824;SDS011;37879;52.986;6.282;2023-07-28T13:23:55;6.07;;;4.05;;
51824;SDS011;37879;52.986;6.282;2023-07-28T13:26:21;6.10;;;4.53;;
51824;SDS011;37879;52.986;6.282;2023-07-28T13:28:46;5.75;;;4.68;;
51824;SDS011;37879;52.986;6.282;2023-07-28T13:31:15;6.95;;;5.63;;
51824;SDS011;37879;52.986;6.282;2023-07-28T13:33:41;4.78;;;3.85;;
51824;SDS011;37879;52.986;6.282;2023-07-28T13:36:07;19.05;;;4.20;;
51824;SDS011;37879;52.986;6.282;2023-07-28T13:38:33;4.93;;;4.03;;
51824;SDS011;37879;52.986;6.282;2023-07-28T13:40:59;5.40;;;3.97;;
51824;SDS011;37879;52.986;6.282;2023-07-28T13:43:25;5.43;;;4.13;;
51824;SDS011;37879;52.986;6.282;2023-07-28T13:45:51;4.20;;;3.63;;
51824;SDS011;37879;52.986;6.282;2023-07-28T13:48:16;5.82;;;4.18;;
51824;SDS011;37879;52.986;6.282;2023-07-28T13:50:42;4.75;;;4.03;;
51824;SDS011;37879;52.986;6.282;2023-07-28T13:53:08;5.22;;;3.90;;
51824;SDS011;37879;52.986;6.282;2023-07-28T13:55:34;6.22;;;4.18;;
51824;SDS011;37879;52.986;6.282;2023-07-28T13:58:00;6.07;;;4.80;;
51824;SDS011;37879;52.986;6.282;2023-07-28T14:00:26;4.70;;;4.18;;
51824;SDS011;37879;52.986;6.282;2023-07-28T14:02:51;5.78;;;4.50;;
51824;SDS011;37879;52.986;6.282;2023-07-28T14:05:17;5.93;;;5.18;;
51824;SDS011;37879;52.986;6.282;2023-07-28T14:07:44;7.82;;;5.07;;
51824;SDS011;37879;52.986;6.282;2023-07-28T14:10:11;5.28;;;4.43;;
51824;SDS011;37879;52.986;6.282;2023-07-28T14:12:37;6.47;;;5.40;;
51824;SDS011;37879;52.986;6.282;2023-07-28T14:15:06;8.13;;;5.20;;
51824;SDS011;37879;52.986;6.282;2023-07-28T14:17:33;6.20;;;4.65;;
51824;SDS011;37879;52.986;6.282;2023-07-28T14:19:58;7.85;;;6.35;;
51824;SDS011;37879;52.986;6.282;2023-07-28T14:22:24;9.18;;;5.53;;
51824;SDS011;37879;52.986;6.282;2023-07-28T14:24:50;7.72;;;5.32;;
51824;SDS011;37879;52.986;6.282;2023-07-28T14:27:15;5.93;;;5.00;;
51824;SDS011;37879;52.986;6.282;2023-07-28T14:29:41;5.80;;;5.20;;
51824;SDS011;37879;52.986;6.282;2023-07-28T14:32:07;6.10;;;4.60;;
51824;SDS011;37879;52.986;6.282;2023-07-28T14:34:33;8.68;;;5.15;;
51824;SDS011;37879;52.986;6.282;2023-07-28T14:37:05;6.32;;;5.00;;
51824;SDS011;37879;52.986;6.282;2023-07-28T14:39:31;7.32;;;4.53;;
51824;SDS011;37879;52.986;6.282;2023-07-28T14:41:57;7.28;;;6.03;;
51824;SDS011;37879;52.986;6.282;2023-07-28T14:44:22;8.18;;;4.65;;
51824;SDS011;37879;52.986;6.282;2023-07-28T14:46:48;6.75;;;5.40;;
51824;SDS011;37879;52.986;6.282;2023-07-28T14:49:14;7.32;;;4.85;;
51824;SDS011;37879;52.986;6.282;2023-07-28T14:51:39;7.18;;;5.10;;